Decoded Metar for KHUL (HOULTON in ME, USA) (IATA:HUL) | Meteo·Mobile Aviation Weather
aviador You're here:

KHUL Decoded Metar

HOULTON in ME, USA
Report Time2018-08-21 11:42:00
UTC Time2018-08-21 12:10:31
Flight Rules vfr VFR
WindCalm
Visibility9999 m
Phenomena:N/A
Clouds:Scattered 005 Hf
Expected CloudBase > 400 ft AGL from Temp-Dew spread
CeilingNone
Temp13°C (ISA -1)
Dew Point12°C (94% RH)
QNH1021 hPa
Density Alt289 ft
Elevation492 ft
Report Wrong Elevation
Raw Report
KHUL 211142Z AUTO 00000KT 10SM SCT005 13/12 A3016 RMK AO2
T01330122=

Extra information for KHUL:More info

Metar Taf Metar & Taf Last 4 Metars F.Rules Stats Wind Profile Meteogram Temp Stats Airport Information Weather charts Add Link Nearby VenuesMetar ALERT Operation Metar Decoded Social comments

AIRNAV info for KHUL